Terminal Aerodrome Forecast
Issued by NWS

Home | Current Version | Previous Version | Text Only | Print | Product List | Glossary On
Versions: 1 2 3 4 5 6 7 8 9 10 11 12 13 14 15
000
FTUS44 KTSA 271720
TAFXNA
TAF
KXNA 271720Z 2718/2818 19012KT P6SM SCT020 OVC030
     FM272000 19018G26KT P6SM OVC050
      TEMPO 2802/2806 VRB30G50KT 1SM TSRA BKN015CB
     FM280600 21005KT 4SM BR OVC007
     FM281500 31005KT P6SM OVC015=

USA.gov is the U.S. government's official web portal to all federal, state and local government web resources and services.